createdAt,value
2023-08-15T00:01:14.888Z,22.00
2023-08-15T00:03:41.752Z,22.00
2023-08-15T00:06:08.582Z,22.00
2023-08-15T00:08:35.292Z,22.00
2023-08-15T00:11:01.992Z,22.00
2023-08-15T00:13:28.671Z,22.00
2023-08-15T00:15:55.397Z,22.00
2023-08-15T00:18:22.112Z,22.00
2023-08-15T00:20:49.457Z,22.00
2023-08-15T00:23:16.480Z,22.00
2023-08-15T00:25:43.759Z,22.10
2023-08-15T00:28:10.484Z,22.00
2023-08-15T00:30:37.212Z,22.10
2023-08-15T00:33:04.095Z,22.00
2023-08-15T00:35:30.790Z,22.00
2023-08-15T00:37:57.734Z,22.00
2023-08-15T00:40:24.771Z,22.00
2023-08-15T00:42:51.773Z,21.90
2023-08-15T00:45:18.601Z,21.90
2023-08-15T00:47:45.811Z,21.90
2023-08-15T00:50:13.367Z,21.90
2023-08-15T00:52:41.059Z,21.80
2023-08-15T00:55:10.903Z,21.80
2023-08-15T00:57:37.898Z,21.80
2023-08-15T01:00:05.378Z,21.90
2023-08-15T01:02:32.575Z,21.80
2023-08-15T01:04:59.361Z,21.80
2023-08-15T01:07:26.146Z,21.80
2023-08-15T01:09:52.920Z,21.80
2023-08-15T01:12:34.333Z,21.90
2023-08-15T01:15:08.390Z,21.90
2023-08-15T01:17:44.594Z,21.90
2023-08-15T01:20:15.995Z,21.80
2023-08-15T01:22:47.909Z,21.80
2023-08-15T01:25:14.649Z,21.80
2023-08-15T01:27:41.376Z,21.90
2023-08-15T01:30:08.679Z,21.90
2023-08-15T01:32:47.001Z,21.90
2023-08-15T01:35:20.461Z,21.90
2023-08-15T01:37:59.953Z,21.90
2023-08-15T01:40:28.024Z,22.00
2023-08-15T01:42:57.004Z,22.10
2023-08-15T01:45:25.856Z,22.00
2023-08-15T01:47:53.399Z,22.00
2023-08-15T01:50:20.324Z,22.00
2023-08-15T01:52:47.185Z,22.00
2023-08-15T01:55:13.998Z,22.00
2023-08-15T01:57:40.731Z,21.90
2023-08-15T02:00:08.196Z,21.90
2023-08-15T02:02:35.316Z,21.90
2023-08-15T02:05:03.447Z,22.00
2023-08-15T02:07:30.363Z,21.90
2023-08-15T02:09:57.056Z,22.00
2023-08-15T02:12:23.763Z,21.90
2023-08-15T02:14:50.527Z,21.90
2023-08-15T02:17:17.350Z,21.80
2023-08-15T02:19:44.113Z,21.80
2023-08-15T02:22:10.802Z,21.80
2023-08-15T02:24:37.503Z,21.70
2023-08-15T02:27:04.398Z,21.60
2023-08-15T02:29:31.124Z,21.70
2023-08-15T02:31:58.532Z,21.70
2023-08-15T02:34:25.255Z,21.70
2023-08-15T02:36:51.950Z,21.70
2023-08-15T02:39:18.651Z,21.70
2023-08-15T02:41:45.594Z,21.70
2023-08-15T02:44:12.350Z,21.50
2023-08-15T02:46:39.149Z,21.40
2023-08-15T02:49:06.624Z,21.40
2023-08-15T02:51:33.359Z,21.40
2023-08-15T02:54:00.071Z,21.40
2023-08-15T02:56:26.829Z,21.40
2023-08-15T02:58:54.103Z,21.50
2023-08-15T03:01:20.997Z,21.40
2023-08-15T03:03:47.811Z,21.50
2023-08-15T03:06:14.541Z,21.40
2023-08-15T03:08:41.259Z,21.40
2023-08-15T03:11:07.980Z,21.40
2023-08-15T03:13:34.767Z,21.40
2023-08-15T03:16:01.472Z,21.40
2023-08-15T03:18:28.176Z,21.40
2023-08-15T03:21:02.043Z,21.30
2023-08-15T03:23:28.930Z,21.30
2023-08-15T03:26:00.282Z,21.30
2023-08-15T03:28:27.297Z,21.40
2023-08-15T03:30:54.575Z,21.40
2023-08-15T03:33:21.536Z,21.50
2023-08-15T03:35:49.573Z,21.50
2023-08-15T03:38:17.864Z,21.40
2023-08-15T03:40:45.598Z,21.40
2023-08-15T03:43:12.617Z,21.30
2023-08-15T03:45:40.122Z,21.30
2023-08-15T03:48:10.833Z,21.20
2023-08-15T03:50:39.040Z,21.10
2023-08-15T03:53:06.676Z,21.00
2023-08-15T03:55:34.230Z,21.10
2023-08-15T03:58:00.988Z,21.10
2023-08-15T04:00:27.702Z,21.10
2023-08-15T04:02:54.407Z,21.10
2023-08-15T04:05:21.145Z,21.10
2023-08-15T04:07:48.005Z,21.10
2023-08-15T04:10:14.734Z,21.10
2023-08-15T04:12:42.108Z,21.10
2023-08-15T04:15:09.124Z,21.10
2023-08-15T04:17:35.880Z,21.10
2023-08-15T04:20:04.266Z,21.10
2023-08-15T04:22:31.165Z,21.20
2023-08-15T04:24:58.013Z,21.20
2023-08-15T04:27:24.814Z,21.20
2023-08-15T04:29:52.326Z,21.20
2023-08-15T04:32:19.086Z,21.20
2023-08-15T04:34:47.400Z,21.20
2023-08-15T04:37:15.164Z,21.20
2023-08-15T04:39:41.841Z,21.20
2023-08-15T04:42:08.529Z,21.20
2023-08-15T04:44:35.233Z,21.30
2023-08-15T04:47:01.993Z,21.40
2023-08-15T04:49:28.689Z,21.40
2023-08-15T04:51:55.425Z,21.50
2023-08-15T04:54:22.182Z,21.50
2023-08-15T04:56:50.045Z,21.50
2023-08-15T04:59:18.719Z,21.40
2023-08-15T05:01:45.736Z,21.30
2023-08-15T05:04:12.650Z,21.30
2023-08-15T05:06:42.454Z,21.10
2023-08-15T05:09:09.237Z,21.10
2023-08-15T05:11:36.007Z,21.10
2023-08-15T05:14:02.792Z,21.20
2023-08-15T05:16:29.700Z,21.30
2023-08-15T05:18:56.408Z,21.30
2023-08-15T05:21:23.198Z,21.30
2023-08-15T05:23:50.202Z,21.40
2023-08-15T05:26:16.924Z,21.30
2023-08-15T05:28:45.970Z,21.10
2023-08-15T05:31:15.993Z,20.90
2023-08-15T05:33:42.716Z,20.80
2023-08-15T05:36:09.502Z,20.80
2023-08-15T05:38:37.386Z,20.80
2023-08-15T05:41:04.499Z,20.70
2023-08-15T05:43:31.203Z,20.70
2023-08-15T05:45:58.243Z,20.40
2023-08-15T05:48:24.970Z,20.20
2023-08-15T05:50:51.839Z,20.10
2023-08-15T05:58:14.101Z,20.20
2023-08-15T06:03:09.215Z,20.30
2023-08-15T06:05:36.208Z,20.20
2023-08-15T06:08:02.943Z,20.20
2023-08-15T06:10:29.657Z,20.20
2023-08-15T06:12:56.431Z,20.30
2023-08-15T06:15:23.186Z,20.40
2023-08-15T06:17:49.968Z,20.40
2023-08-15T06:20:16.858Z,20.40
2023-08-15T06:22:43.591Z,20.30
2023-08-15T06:25:10.395Z,20.20
2023-08-15T06:27:37.159Z,20.20
2023-08-15T06:30:04.322Z,20.40
2023-08-15T06:32:33.574Z,20.50
2023-08-15T06:35:01.452Z,20.50
2023-08-15T06:37:28.189Z,20.60
2023-08-15T06:39:54.920Z,20.70
2023-08-15T06:42:21.668Z,20.70
2023-08-15T06:44:48.367Z,20.60
2023-08-15T06:47:15.152Z,20.80
2023-08-15T06:49:42.244Z,20.80
2023-08-15T06:52:09.072Z,20.80
2023-08-15T06:54:37.395Z,20.70
2023-08-15T06:57:04.402Z,20.70
2023-08-15T06:59:36.278Z,20.80
2023-08-15T07:02:03.336Z,20.90
2023-08-15T07:04:30.078Z,20.90
2023-08-15T07:06:58.344Z,20.90
2023-08-15T07:09:25.817Z,21.00
2023-08-15T07:11:52.553Z,21.00
2023-08-15T07:14:19.396Z,21.00
2023-08-15T07:16:47.370Z,21.00
2023-08-15T07:19:14.174Z,21.10
2023-08-15T07:21:42.551Z,21.20
2023-08-15T07:24:09.283Z,21.30
2023-08-15T07:26:37.271Z,21.50
2023-08-15T07:29:04.370Z,21.40
2023-08-15T07:31:31.536Z,21.60
2023-08-15T07:33:58.320Z,21.60
2023-08-15T07:36:25.194Z,21.60
2023-08-15T07:38:51.911Z,21.60
2023-08-15T07:41:18.658Z,21.40
2023-08-15T07:43:45.432Z,21.40
2023-08-15T07:46:12.518Z,21.60
2023-08-15T07:48:39.460Z,21.70
2023-08-15T07:51:06.221Z,22.00
2023-08-15T07:53:32.958Z,22.00
2023-08-15T07:55:59.836Z,22.30
2023-08-15T07:58:26.571Z,22.40
2023-08-15T08:00:53.752Z,22.50
2023-08-15T08:03:20.542Z,22.60
2023-08-15T08:05:47.745Z,22.60
2023-08-15T08:08:15.222Z,22.80
2023-08-15T08:10:42.017Z,22.90
2023-08-15T08:13:13.001Z,23.00
2023-08-15T08:15:40.070Z,23.00
2023-08-15T08:18:06.972Z,23.20
2023-08-15T08:20:33.784Z,23.40
2023-08-15T08:23:00.493Z,23.40
2023-08-15T08:25:28.063Z,23.50
2023-08-15T08:27:55.466Z,23.70
2023-08-15T08:30:26.477Z,23.80
2023-08-15T08:32:54.948Z,23.80
2023-08-15T08:35:21.688Z,24.00
2023-08-15T08:37:48.805Z,24.10
2023-08-15T08:40:17.456Z,24.30
2023-08-15T08:42:45.313Z,24.70
2023-08-15T08:45:12.785Z,24.70
2023-08-15T08:47:41.125Z,24.60
2023-08-15T08:50:12.087Z,24.60
2023-08-15T08:52:43.226Z,24.80
2023-08-15T08:55:10.595Z,25.20
2023-08-15T08:57:38.257Z,25.40
2023-08-15T09:00:08.932Z,25.30
2023-08-15T09:02:36.721Z,25.40
2023-08-15T09:05:08.514Z,25.40
2023-08-15T09:07:36.850Z,25.10
2023-08-15T09:10:05.906Z,25.10
2023-08-15T09:12:34.023Z,25.10
2023-08-15T09:15:00.819Z,25.00
2023-08-15T09:17:28.128Z,25.30
2023-08-15T09:19:55.353Z,25.30
2023-08-15T09:22:25.806Z,25.00
2023-08-15T09:24:52.753Z,25.10
2023-08-15T09:27:20.015Z,25.10
2023-08-15T09:29:47.125Z,25.20
2023-08-15T09:32:15.846Z,25.20
2023-08-15T09:34:42.658Z,25.20
2023-08-15T09:37:09.972Z,25.20
2023-08-15T09:39:37.746Z,25.10
2023-08-15T09:42:04.751Z,25.20
2023-08-15T09:44:34.120Z,25.30
2023-08-15T09:47:02.372Z,25.60
2023-08-15T09:49:32.520Z,25.50
2023-08-15T09:52:02.179Z,25.40
2023-08-15T09:54:31.852Z,25.40
2023-08-15T09:56:58.931Z,25.30
2023-08-15T09:59:25.759Z,25.40
2023-08-15T10:01:54.924Z,25.50
2023-08-15T10:04:23.866Z,25.80
2023-08-15T10:06:54.855Z,25.80
2023-08-15T10:09:22.079Z,26.00
2023-08-15T10:11:48.939Z,26.40
2023-08-15T10:14:18.912Z,26.40
2023-08-15T10:16:45.994Z,26.60
2023-08-15T10:19:19.591Z,26.50
2023-08-15T10:21:53.926Z,26.50
2023-08-15T10:24:22.374Z,26.40
2023-08-15T10:26:52.558Z,26.10
2023-08-15T10:29:19.291Z,26.00
2023-08-15T10:31:46.675Z,26.10
2023-08-15T10:34:13.729Z,26.60
2023-08-15T10:36:46.353Z,27.30
2023-08-15T10:39:15.827Z,27.70
2023-08-15T10:41:43.350Z,28.00
2023-08-15T10:44:10.132Z,28.30
2023-08-15T10:46:37.494Z,27.90
2023-08-15T10:49:24.533Z,27.40
2023-08-15T10:51:59.262Z,27.20
2023-08-15T10:54:26.019Z,27.20
2023-08-15T10:56:52.753Z,27.10
2023-08-15T10:59:19.676Z,27.40
2023-08-15T11:01:47.573Z,27.70
2023-08-15T11:04:16.897Z,28.00
2023-08-15T11:06:49.114Z,28.00
2023-08-15T11:09:17.328Z,28.50
2023-08-15T11:11:45.454Z,28.50
2023-08-15T11:14:19.667Z,28.80
2023-08-15T11:16:48.033Z,28.70
2023-08-15T11:19:19.569Z,28.40
2023-08-15T11:21:47.703Z,28.10
2023-08-15T11:24:14.480Z,27.70
2023-08-15T11:26:44.081Z,27.40
2023-08-15T11:29:13.601Z,27.40
2023-08-15T11:31:40.804Z,27.50
2023-08-15T11:34:08.717Z,27.80
2023-08-15T11:36:37.072Z,28.20
2023-08-15T11:39:04.296Z,28.60
2023-08-15T11:41:33.283Z,28.70
2023-08-15T11:44:02.194Z,28.40
2023-08-15T11:46:33.512Z,28.40
2023-08-15T11:49:05.854Z,28.30
2023-08-15T11:51:32.570Z,27.90
2023-08-15T11:54:00.489Z,27.70
2023-08-15T11:56:27.282Z,27.50
2023-08-15T11:58:54.197Z,27.50
2023-08-15T12:01:21.478Z,27.60
2023-08-15T12:03:48.353Z,27.70
2023-08-15T12:06:16.819Z,27.80
2023-08-15T12:08:47.006Z,28.20
2023-08-15T12:11:19.893Z,28.60
2023-08-15T12:13:47.048Z,28.80
2023-08-15T12:16:13.840Z,28.90
2023-08-15T12:18:40.835Z,28.90
2023-08-15T12:21:14.070Z,28.80
2023-08-15T12:23:42.485Z,28.90
2023-08-15T12:26:09.270Z,28.60
2023-08-15T12:28:36.077Z,28.70
2023-08-15T12:31:02.925Z,28.90
2023-08-15T12:33:43.999Z,29.10
2023-08-15T12:36:15.301Z,29.20
2023-08-15T12:38:43.337Z,29.40
2023-08-15T12:41:10.567Z,29.50
2023-08-15T12:43:37.751Z,29.00
2023-08-15T12:46:05.142Z,29.00
2023-08-15T12:48:32.011Z,28.70
2023-08-15T12:51:02.081Z,28.80
2023-08-15T12:53:28.897Z,28.60
2023-08-15T12:55:55.764Z,28.30
2023-08-15T12:58:22.584Z,28.40
2023-08-15T13:00:50.250Z,28.40
2023-08-15T13:03:19.425Z,28.70
2023-08-15T13:05:47.619Z,28.80
2023-08-15T13:08:16.791Z,28.70
2023-08-15T13:10:44.511Z,28.90
2023-08-15T13:13:11.686Z,29.00
2023-08-15T13:15:38.818Z,28.80
2023-08-15T13:18:05.953Z,29.00
2023-08-15T13:20:32.758Z,29.20
2023-08-15T13:22:59.631Z,29.20
2023-08-15T13:25:26.363Z,29.50
2023-08-15T13:27:53.089Z,29.70
2023-08-15T13:30:19.856Z,29.40
2023-08-15T13:32:46.633Z,28.80
2023-08-15T13:35:13.360Z,29.20
2023-08-15T13:37:40.092Z,29.40
2023-08-15T13:40:07.762Z,29.70
2023-08-15T13:42:38.907Z,29.30
2023-08-15T13:45:09.494Z,28.90
2023-08-15T13:47:41.451Z,28.80
2023-08-15T13:50:09.665Z,28.80
2023-08-15T13:52:37.768Z,28.90
2023-08-15T13:55:05.890Z,28.70
2023-08-15T13:57:33.541Z,28.70
2023-08-15T14:00:04.208Z,28.60
2023-08-15T14:02:36.872Z,28.60
2023-08-15T14:05:05.138Z,28.70
2023-08-15T14:07:33.050Z,28.80
2023-08-15T14:09:59.980Z,28.60
2023-08-15T14:12:27.935Z,28.70
2023-08-15T14:14:54.727Z,28.70
2023-08-15T14:17:21.487Z,28.70
2023-08-15T14:19:48.257Z,28.80
2023-08-15T14:22:16.111Z,28.80
2023-08-15T14:24:47.666Z,28.90
2023-08-15T14:27:14.609Z,28.80
2023-08-15T14:29:41.544Z,28.50
2023-08-15T14:32:08.475Z,28.50
2023-08-15T14:34:35.638Z,28.40
2023-08-15T14:37:02.366Z,28.30
2023-08-15T14:39:29.057Z,28.20
2023-08-15T14:41:55.826Z,28.10
2023-08-15T14:44:22.521Z,28.10
2023-08-15T14:46:49.234Z,28.00
2023-08-15T14:49:15.970Z,28.10
2023-08-15T14:51:42.684Z,28.10
2023-08-15T14:54:09.508Z,28.20
2023-08-15T14:56:36.290Z,28.20
2023-08-15T14:59:03.084Z,28.50
2023-08-15T15:01:29.900Z,28.60
2023-08-15T15:03:57.084Z,28.70
2023-08-15T15:06:23.892Z,28.70
2023-08-15T15:08:50.773Z,28.40
2023-08-15T15:11:17.509Z,28.30
2023-08-15T15:13:45.678Z,28.20
2023-08-15T15:16:13.758Z,28.20
2023-08-15T15:18:42.196Z,28.00
2023-08-15T15:21:09.091Z,27.80
2023-08-15T15:23:35.781Z,27.70
2023-08-15T15:26:02.629Z,27.60
2023-08-15T15:28:29.370Z,27.70
2023-08-15T15:30:56.063Z,27.60
2023-08-15T15:33:22.851Z,27.60
2023-08-15T15:35:49.641Z,27.60
2023-08-15T15:38:16.419Z,27.60
2023-08-15T15:40:43.120Z,27.50
2023-08-15T15:43:10.085Z,27.50
2023-08-15T15:45:37.473Z,27.40
2023-08-15T15:48:04.781Z,27.30
2023-08-15T15:50:33.904Z,27.30
2023-08-15T15:53:01.973Z,27.30
2023-08-15T15:55:28.750Z,27.30
2023-08-15T15:57:55.451Z,27.10
2023-08-15T16:00:22.375Z,27.10
2023-08-15T16:02:49.177Z,27.10
2023-08-15T16:05:16.084Z,27.10
2023-08-15T16:07:43.204Z,27.10
2023-08-15T16:10:11.892Z,27.10
2023-08-15T16:12:38.912Z,27.10
2023-08-15T16:15:06.081Z,27.20
2023-08-15T16:17:33.550Z,27.20
2023-08-15T16:20:00.496Z,27.10
2023-08-15T16:22:27.352Z,27.10
2023-08-15T16:24:54.474Z,27.00
2023-08-15T16:27:21.311Z,27.00
2023-08-15T16:29:48.304Z,26.90
2023-08-15T16:32:17.129Z,26.90
2023-08-15T16:34:44.194Z,26.80
2023-08-15T16:37:11.047Z,26.80
2023-08-15T16:39:37.820Z,26.70
2023-08-15T16:42:04.968Z,26.60
2023-08-15T16:44:31.667Z,26.60
2023-08-15T16:46:58.463Z,26.60
2023-08-15T16:49:25.422Z,26.70
2023-08-15T16:51:52.228Z,26.90
2023-08-15T16:54:19.166Z,27.10
2023-08-15T16:56:45.907Z,27.10
2023-08-15T16:59:12.729Z,27.20
2023-08-15T17:01:39.511Z,27.40
2023-08-15T17:04:06.574Z,27.50
2023-08-15T17:06:33.427Z,27.80
2023-08-15T17:09:00.176Z,27.80
2023-08-15T17:11:26.956Z,27.80
2023-08-15T17:13:55.948Z,27.70
2023-08-15T17:16:22.794Z,27.40
2023-08-15T17:18:49.560Z,27.40
2023-08-15T17:21:16.234Z,27.40
2023-08-15T17:23:44.801Z,27.40
2023-08-15T17:26:11.518Z,27.20
2023-08-15T17:28:38.314Z,27.10
2023-08-15T17:31:06.242Z,27.10
2023-08-15T17:33:33.043Z,27.10
2023-08-15T17:36:00.142Z,27.10
2023-08-15T17:38:26.845Z,27.10
2023-08-15T17:40:53.564Z,27.10
2023-08-15T17:43:20.422Z,27.10
2023-08-15T17:45:47.296Z,27.10
2023-08-15T17:48:14.093Z,27.10
2023-08-15T17:50:40.826Z,27.00
2023-08-15T17:53:07.622Z,26.80
2023-08-15T17:55:34.408Z,26.80
2023-08-15T17:58:01.139Z,26.70
2023-08-15T18:00:29.860Z,26.60
2023-08-15T18:02:57.229Z,26.50
2023-08-15T18:05:25.834Z,26.50
2023-08-15T18:07:52.629Z,26.40
2023-08-15T18:10:20.399Z,26.30
2023-08-15T18:12:47.236Z,26.20
2023-08-15T18:15:14.092Z,26.10
2023-08-15T18:17:40.879Z,26.10
2023-08-15T18:20:08.267Z,26.00
2023-08-15T18:22:38.782Z,25.90
2023-08-15T18:25:05.909Z,25.90
2023-08-15T18:27:32.690Z,25.80
2023-08-15T18:30:02.075Z,25.80
2023-08-15T18:32:28.909Z,25.70
2023-08-15T18:34:55.647Z,25.70
2023-08-15T18:37:22.488Z,25.60
2023-08-15T18:39:49.298Z,25.50
2023-08-15T18:42:16.036Z,25.50
2023-08-15T18:44:43.587Z,25.30
2023-08-15T18:47:10.358Z,25.00
2023-08-15T18:49:37.125Z,24.80
2023-08-15T18:52:04.071Z,24.90
2023-08-15T18:54:30.882Z,24.60
2023-08-15T18:56:57.787Z,24.60
2023-08-15T18:59:24.592Z,24.40
2023-08-15T19:01:51.660Z,24.30
2023-08-15T19:04:18.432Z,24.10
2023-08-15T19:06:45.157Z,24.00
2023-08-15T19:09:11.917Z,23.90
2023-08-15T19:11:38.673Z,23.80
2023-08-15T19:14:05.582Z,23.70
2023-08-15T19:16:32.317Z,23.70
2023-08-15T19:19:03.918Z,23.50
2023-08-15T19:21:31.235Z,23.30
2023-08-15T19:23:57.966Z,23.30
2023-08-15T19:26:24.758Z,23.30
2023-08-15T19:28:51.847Z,23.10
2023-08-15T19:31:18.641Z,23.10
2023-08-15T19:33:45.390Z,23.10
2023-08-15T19:36:12.100Z,23.10
2023-08-15T19:38:38.963Z,23.10
2023-08-15T19:41:05.868Z,22.90
2023-08-15T19:43:32.904Z,22.80
2023-08-15T19:45:59.632Z,22.70
2023-08-15T19:48:28.091Z,22.70
2023-08-15T19:50:54.884Z,22.60
2023-08-15T19:53:21.584Z,22.60
2023-08-15T19:55:48.316Z,22.50
2023-08-15T19:58:15.116Z,22.50
2023-08-15T20:00:41.868Z,22.40
2023-08-15T20:03:08.936Z,22.40
2023-08-15T20:05:35.735Z,22.30
2023-08-15T20:08:03.461Z,22.30
2023-08-15T20:10:30.282Z,22.20
2023-08-15T20:12:58.253Z,22.20
2023-08-15T20:15:25.151Z,22.20
2023-08-15T20:17:51.934Z,22.20
2023-08-15T20:20:18.703Z,22.00
2023-08-15T20:22:45.424Z,22.00
2023-08-15T20:25:12.253Z,21.90
2023-08-15T20:27:39.186Z,21.90
2023-08-15T20:30:06.643Z,21.80
2023-08-15T20:32:33.541Z,21.80
2023-08-15T20:35:00.371Z,21.70
2023-08-15T20:37:27.939Z,21.70
2023-08-15T20:39:54.767Z,21.60
2023-08-15T20:42:21.875Z,21.50
2023-08-15T20:44:48.880Z,21.40
2023-08-15T20:47:15.571Z,21.40
2023-08-15T20:49:42.460Z,21.40
2023-08-15T20:52:10.901Z,21.30
2023-08-15T20:54:37.709Z,21.30
2023-08-15T20:57:04.939Z,21.20
2023-08-15T20:59:31.664Z,21.20
2023-08-15T21:01:58.598Z,21.20
2023-08-15T21:04:25.472Z,21.20
2023-08-15T21:06:53.373Z,21.20
2023-08-15T21:09:20.550Z,21.30
2023-08-15T21:11:48.001Z,21.20
2023-08-15T21:14:15.460Z,21.10
2023-08-15T21:16:42.421Z,21.00
2023-08-15T21:19:09.165Z,21.00
2023-08-15T21:21:35.868Z,20.80
2023-08-15T21:24:02.782Z,20.80
2023-08-15T21:26:30.317Z,20.70
2023-08-15T21:28:57.021Z,20.70
2023-08-15T21:31:23.789Z,20.60
2023-08-15T21:33:50.522Z,20.60
2023-08-15T21:36:17.247Z,20.50
2023-08-15T21:38:43.988Z,20.50
2023-08-15T21:41:10.799Z,20.40
2023-08-15T21:43:37.566Z,20.30
2023-08-15T21:46:04.486Z,20.20
2023-08-15T21:48:33.472Z,20.30
2023-08-15T21:51:00.244Z,20.30
2023-08-15T21:53:27.241Z,20.40
2023-08-15T21:55:54.315Z,20.30
2023-08-15T21:58:21.041Z,20.30
2023-08-15T22:00:47.782Z,20.40
2023-08-15T22:03:14.589Z,20.30
2023-08-15T22:05:46.154Z,20.40
2023-08-15T22:08:13.025Z,20.40
2023-08-15T22:10:39.853Z,20.20
2023-08-15T22:13:06.691Z,20.20
2023-08-15T22:15:33.413Z,20.20
2023-08-15T22:18:13.310Z,20.20
2023-08-15T22:23:13.591Z,20.00
2023-08-15T22:25:47.999Z,20.00
2023-08-15T22:28:15.280Z,20.00
2023-08-15T22:30:42.262Z,20.00
2023-08-15T22:33:09.228Z,20.00
2023-08-15T22:35:43.189Z,20.00
2023-08-15T22:38:10.637Z,20.00
2023-08-15T22:40:37.769Z,20.00
2023-08-15T22:43:06.107Z,20.00
2023-08-15T22:45:33.022Z,19.90
2023-08-15T22:47:59.935Z,20.00
2023-08-15T22:50:26.733Z,20.00
2023-08-15T22:52:56.345Z,19.90
2023-08-15T22:55:23.276Z,19.90
2023-08-15T22:57:50.092Z,19.80
2023-08-15T23:02:44.099Z,19.70
2023-08-15T23:05:11.364Z,19.70
2023-08-15T23:07:38.356Z,19.70
2023-08-15T23:10:06.504Z,19.60
2023-08-15T23:12:33.217Z,19.50
2023-08-15T23:14:59.960Z,19.50
2023-08-15T23:17:26.680Z,19.50
2023-08-15T23:19:53.425Z,19.50
2023-08-15T23:22:20.164Z,19.50
2023-08-15T23:24:46.949Z,19.50
2023-08-15T23:27:13.814Z,19.50
2023-08-15T23:29:40.574Z,19.60
2023-08-15T23:32:07.984Z,19.60
2023-08-15T23:34:34.829Z,19.70
2023-08-15T23:37:01.603Z,19.70
2023-08-15T23:39:28.309Z,19.50
2023-08-15T23:41:55.052Z,19.50
2023-08-15T23:44:21.742Z,19.50
2023-08-15T23:46:48.922Z,19.50
2023-08-15T23:51:43.014Z,19.50
2023-08-15T23:54:09.722Z,19.40
2023-08-15T23:59:04.165Z,19.40
